Millennium — 9HJF9 — position and weather

sailwx.info

Track history (hours):
 
Tides and Currents Weather Stations Pressure Air Temp Water Temp Dewpoint Dewpoint Depression Visibility Wind Speed Wind Dir Waves Ship Positions

Millennium

Last reported at 2019-Mar-20 21:00 UTC. Time now 2019-Mar-22 12:04 UTC.
Position N 33°48' E 127°48'.

Length 294 m; draft 8.4 m.

Type: Ship. MMSI: 249055000.

Wind from 280 at 27 knots

Barometer 1011.9 mb
Air temperature 13.0 ° C
Visibility: greater than 5.4 NM
Water temperature 18.0 ° C

Date/timePositionNaut miles runAvg speedWind from/ knotsBaromVisibWave heightAir tempDewpointWater temp
2019-Mar-20 21:00N 33°48' E 127°48'10016.3 280 / 271011.9 5.4 13.0 18.0
2019-Mar-20 14:49N 35°04' E 129°07'3 9.5
2019-Mar-20 14:30N 35°06' E 129°04'1 2.3
2019-Mar-20 13:58N 35°07' E 129°03'0 0.0
2019-Mar-20 13:28N 35°07' E 129°03'0 0.0
2019-Mar-20 12:55N 35°07' E 129°03'0 0.0
2019-Mar-20 12:19N 35°07' E 129°03'0 0.0
2019-Mar-20 11:58N 35°07' E 129°03'0 0.0
2019-Mar-20 11:28N 35°07' E 129°03'0 0.0
2019-Mar-20 10:58N 35°07' E 129°03'0 0.0
2019-Mar-20 10:28N 35°07' E 129°03'0 0.0
2019-Mar-20 09:58N 35°07' E 129°03'0 0.0
2019-Mar-20 09:28N 35°07' E 129°03'0 0.0
2019-Mar-20 08:58N 35°07' E 129°03'0 0.0
2019-Mar-20 08:28N 35°07' E 129°03'0 0.0
2019-Mar-20 07:57N 35°07' E 129°03'0 0.0
2019-Mar-20 07:27N 35°07' E 129°03'0 0.0
2019-Mar-20 07:00N 35°07' E 129°03'0 0.0
2019-Mar-20 06:30N 35°07' E 129°03'0 0.0
2019-Mar-20 06:00N 35°07' E 129°03'0 0.0
2019-Mar-20 05:30N 35°07' E 129°03'0 0.0
2019-Mar-20 05:00N 35°07' E 129°03'0 0.1
2019-Mar-20 04:30N 35°07' E 129°03'3 6.0
2019-Mar-20 04:00N 35°05' E 129°06'1 2.4
2019-Mar-20 03:30N 35°04' E 129°08'9714.9
2019-Mar-19 21:00N 33°42' E 128°06'1110.4 140 / 8 5.4 15.0 19.0
2019-Mar-19 19:54N 33°32' E 128°01'716.5
2019-Mar-19 19:29N 33°26' E 127°56'919.5
2019-Mar-19 19:00N 33°18' E 127°50'1019.5
2019-Mar-19 18:31N 33°10' E 127°44'1019.6
2019-Mar-19 18:01N 33°01' E 127°38'1020.2
2019-Mar-19 17:31N 32°53' E 127°31'1020.1
2019-Mar-19 17:01N 32°45' E 127°25'3153.3
2019-Mar-19 17:00N 32°42' E 127°24'815.4 020 / 81018.3 5.4 14.513.814.0
2019-Mar-19 16:29N 32°36' E 127°18'8419.6
2019-Mar-19 12:12N 31°26' E 126°24'19719.3
2019-Mar-19 02:00N 28°42' E 124°18'8416.7 020 / 181023.310.8 28.0
2019-Mar-18 21:00N 27°30' E 123°30'14622.1 010 / 201021.3 15.0 20.0
2019-Mar-18 14:22N 25°27' E 122°02'1020.4
2019-Mar-18 13:53N 25°20' E 121°54'820.5
2019-Mar-18 13:30N 25°14' E 121°48'612.8
2019-Mar-18 13:00N 25°09' E 121°45'1 1.0
2019-Mar-18 12:27N 25°08' E 121°45'0 0.0
2019-Mar-18 11:57N 25°08' E 121°45'0 0.0
2019-Mar-18 11:27N 25°08' E 121°45'0 0.0
2019-Mar-18 10:57N 25°08' E 121°45'0 0.0
2019-Mar-18 10:27N 25°08' E 121°45'0 0.0
2019-Mar-18 09:57N 25°08' E 121°45'0 0.0
2019-Mar-18 09:27N 25°08' E 121°45'0 0.0
2019-Mar-18 08:57N 25°08' E 121°45'0 0.0
2019-Mar-18 08:27N 25°08' E 121°45'0 0.0
2019-Mar-18 07:57N 25°08' E 121°45'0 0.0
2019-Mar-18 07:27N 25°08' E 121°45'0 0.0
2019-Mar-18 06:45N 25°08' E 121°45'0 0.0
2019-Mar-18 06:19N 25°08' E 121°45'0 0.0
2019-Mar-18 05:49N 25°08' E 121°45'0 0.0
2019-Mar-18 05:25N 25°08' E 121°45'0 0.0
2019-Mar-18 04:55N 25°08' E 121°45'0 0.0
2019-Mar-18 03:55N 25°08' E 121°45'0 0.0
2019-Mar-18 03:19N 25°08' E 121°45'0 0.0
2019-Mar-18 02:52N 25°08' E 121°45'0 0.0
2019-Mar-18 02:28N 25°08' E 121°45'0 0.0
2019-Mar-18 01:52N 25°08' E 121°45'0 0.0
2019-Mar-18 01:04N 25°08' E 121°45'0 0.0
2019-Mar-18 00:52N 25°08' E 121°45'0 0.0
2019-Mar-18 00:28N 25°08' E 121°45'0 0.0
2019-Mar-17 23:04N 25°08' E 121°45'0 0.0
2019-Mar-17 22:55N 25°08' E 121°45'0 0.0
2019-Mar-17 22:23N 25°08' E 121°45'1 2.5
2019-Mar-17 22:00N 25°09' E 121°45'3 5.5
2019-Mar-17 21:26N 25°12' E 121°45'614.1
2019-Mar-17 21:00N 25°17' E 121°41'1020.3
2019-Mar-17 20:30N 25°23' E 121°32'612.5
2019-Mar-17 19:59N 25°22' E 121°25'4 8.2
2019-Mar-17 19:30N 25°20' E 121°21'1418.4
2019-Mar-17 18:45N 25°13' E 121°08'414.2
2019-Mar-17 18:29N 25°11' E 121°04'611.8
2019-Mar-17 18:00N 25°08' E 120°59'911.3
2019-Mar-17 17:12N 25°03' E 120°50'2812.8
2019-Mar-17 15:00N 24°48' E 120°24'6315.7 360 / 241025.3 5.4 26.0
2019-Mar-17 11:00N 24°30' E 119°18'2913.7 030 / 351022.3 5.4 17.0 25.0
2019-Mar-17 08:50N 24°11' E 118°54'614.7
2019-Mar-17 08:24N 24°07' E 118°48'614.5
2019-Mar-17 08:00N 24°04' E 118°43'714.5
2019-Mar-17 07:30N 24°00' E 118°36'714.6
2019-Mar-17 07:00N 23°55' E 118°30'714.7
2019-Mar-17 06:30N 23°50' E 118°24'1014.9
2019-Mar-17 05:52N 23°45' E 118°16'514.5
2019-Mar-17 05:30N 23°42' E 118°11'714.8
2019-Mar-17 05:00N 23°37' E 118°04'714.9
2019-Mar-17 04:30N 23°33' E 117°58'714.6
2019-Mar-17 04:00N 23°28' E 117°52'714.6
2019-Mar-17 03:30N 23°24' E 117°46'714.6
2019-Mar-17 03:00N 23°19' E 117°39'714.3
2019-Mar-17 02:30N 23°15' E 117°33'4 7.8
2019-Mar-17 02:00N 23°12' E 117°30'4142.6 060 / 211023.3 5.4 26.0
2019-Mar-17 01:58N 23°09' E 117°27'6215.7
2019-Mar-16 22:00N 22°36' E 116°30'12613.6 080 / 24 10.8 19.0 24.0
2019-Mar-16 12:44N 22°16' E 114°16'3 8.5
2019-Mar-16 12:26N 22°17' E 114°13'1 1.5
2019-Mar-16 11:50N 22°18' E 114°13'0 0.0
2019-Mar-16 11:20N 22°18' E 114°13'0 0.0
2019-Mar-16 10:41N 22°18' E 114°13'0 0.0
2019-Mar-16 10:29N 22°18' E 114°13'0 0.0
2019-Mar-16 09:38N 22°18' E 114°13'0 0.0
2019-Mar-16 09:26N 22°18' E 114°13'0 0.0
2019-Mar-16 08:56N 22°18' E 114°13'0 0.0
2019-Mar-16 08:26N 22°18' E 114°13'0 0.0
2019-Mar-16 07:59N 22°18' E 114°13'0 0.0
2019-Mar-16 07:20N 22°18' E 114°13'0 0.0
2019-Mar-16 06:50N 22°18' E 114°13'0 0.0
2019-Mar-16 06:26N 22°18' E 114°13'0 0.0
2019-Mar-16 05:50N 22°18' E 114°13'0 0.0
2019-Mar-16 05:26N 22°18' E 114°13'0 0.0
2019-Mar-16 04:56N 22°18' E 114°13'0 0.0
2019-Mar-16 04:26N 22°18' E 114°13'0 0.0
2019-Mar-16 03:50N 22°18' E 114°13'0 0.0
2019-Mar-16 02:50N 22°18' E 114°13'0 0.0
2019-Mar-16 02:20N 22°18' E 114°13'0 0.0
2019-Mar-16 01:53N 22°18' E 114°13'0 0.0
2019-Mar-16 01:26N 22°18' E 114°13'0 0.0
2019-Mar-16 00:56N 22°18' E 114°13'0 0.0
2019-Mar-16 00:26N 22°18' E 114°13'0 0.0
2019-Mar-15 23:50N 22°18' E 114°13'0 0.0
2019-Mar-15 23:26N 22°18' E 114°13'0 0.0
2019-Mar-15 22:59N 22°18' E 114°13'0 0.0
2019-Mar-15 22:26N 22°18' E 114°13'0 0.0
2019-Mar-15 21:56N 22°18' E 114°13'0 0.0
2019-Mar-15 21:29N 22°18' E 114°13'0 0.0
2019-Mar-15 20:50N 22°18' E 114°13'0 0.0
2019-Mar-15 20:26N 22°18' E 114°13'0 0.0
2019-Mar-15 19:56N 22°18' E 114°13'0 0.0
2019-Mar-15 19:26N 22°18' E 114°13'0 0.0
2019-Mar-15 18:50N 22°18' E 114°13'0 0.0
2019-Mar-15 18:26N 22°18' E 114°13'0 0.0
2019-Mar-15 17:50N 22°18' E 114°13'0 0.0
2019-Mar-15 17:26N 22°18' E 114°13'0 0.0
2019-Mar-15 16:26N 22°18' E 114°13'0 0.0
2019-Mar-15 15:56N 22°18' E 114°13'0 0.0
2019-Mar-15 15:20N 22°18' E 114°13'0 0.0
2019-Mar-15 14:56N 22°18' E 114°13'0 0.0
2019-Mar-15 14:17N 22°18' E 114°13'0 0.0
2019-Mar-15 13:56N 22°18' E 114°13'0 0.0
2019-Mar-15 13:26N 22°18' E 114°13'0 0.0
2019-Mar-15 12:56N 22°18' E 114°13'0 0.0
2019-Mar-15 12:26N 22°18' E 114°13'0 0.0
2019-Mar-15 11:59N 22°18' E 114°13'0 0.0
2019-Mar-15 11:23N 22°18' E 114°13'0 0.0
2019-Mar-15 10:44N 22°18' E 114°13'0 0.0
2019-Mar-15 10:20N 22°18' E 114°13'0 0.0
2019-Mar-15 09:38N 22°18' E 114°13'0 0.0
2019-Mar-15 09:26N 22°18' E 114°13'0 0.0
2019-Mar-15 08:56N 22°18' E 114°13'0 0.0
2019-Mar-15 08:20N 22°18' E 114°13'0 0.0
2019-Mar-15 07:44N 22°18' E 114°13'0 0.0
2019-Mar-15 07:26N 22°18' E 114°13'0 0.0
2019-Mar-15 06:59N 22°18' E 114°13'0 0.0
2019-Mar-15 06:29N 22°18' E 114°13'0 0.0
2019-Mar-15 05:56N 22°18' E 114°13'0 0.0
2019-Mar-15 05:29N 22°18' E 114°13'0 0.0
2019-Mar-15 04:59N 22°18' E 114°13'0 0.0
2019-Mar-15 04:26N 22°18' E 114°13'0 0.0
2019-Mar-15 03:56N 22°18' E 114°13'0 0.0
2019-Mar-15 03:26N 22°18' E 114°13'0 0.0
2019-Mar-15 02:53N 22°18' E 114°13'0 0.0
2019-Mar-15 02:26N 22°18' E 114°13'0 0.0
2019-Mar-15 01:50N 22°18' E 114°13'0 0.0
2019-Mar-15 01:23N 22°18' E 114°13'0 0.0
2019-Mar-15 00:56N 22°18' E 114°13'0 0.0
2019-Mar-15 00:14N 22°18' E 114°13'0 0.0
2019-Mar-14 23:59N 22°18' E 114°13'0 0.0
2019-Mar-14 23:26N 22°18' E 114°13'0 0.0
2019-Mar-14 22:56N 22°18' E 114°13'0 0.2
2019-Mar-14 22:30N 22°18' E 114°13'2 3.8
2019-Mar-14 22:00N 22°17' E 114°14'7 9.9
2019-Mar-14 21:16N 22°14' E 114°21'  
2019-Mar-12 00:00N 19°54' E 107°24'12117.3 050 / 121018.3 5.4 21.0 26.0
2019-Mar-11 17:00N 17°54' E 107°42'3618.2 360 / 131013.210.8 23.923.319.8
2019-Mar-11 15:00N 17°18' E 107°48'   010 / 141016.210.8 28.0
Track history (hours):
 
Tides and Currents Weather Stations Pressure Air Temp Water Temp Dewpoint Dewpoint Depression Visibility Wind Speed Wind Dir Waves Ship Positions

Millennium

Last reported at 2019-Mar-20 21:00 UTC. Time now 2019-Mar-22 12:04 UTC.
Position N 33°48' E 127°48'.

Length 294 m; draft 8.4 m.

Type: Ship. MMSI: 249055000.

Wind from 280 at 27 knots

Barometer 1011.9 mb
Air temperature 13.0 ° C
Visibility: greater than 5.4 NM
Water temperature 18.0 ° C

Date/timePositionNaut miles runAvg speedWind from/ knotsBaromVisibWave heightAir tempDewpointWater temp
2019-Mar-20 21:00N 33°48' E 127°48'10016.3 280 / 271011.9 5.4 13.0 18.0
2019-Mar-20 14:49N 35°04' E 129°07'3 9.5
2019-Mar-20 14:30N 35°06' E 129°04'1 2.3
2019-Mar-20 13:58N 35°07' E 129°03'0 0.0
2019-Mar-20 13:28N 35°07' E 129°03'0 0.0
2019-Mar-20 12:55N 35°07' E 129°03'0 0.0
2019-Mar-20 12:19N 35°07' E 129°03'0 0.0
2019-Mar-20 11:58N 35°07' E 129°03'0 0.0
2019-Mar-20 11:28N 35°07' E 129°03'0 0.0
2019-Mar-20 10:58N 35°07' E 129°03'0 0.0
2019-Mar-20 10:28N 35°07' E 129°03'0 0.0
2019-Mar-20 09:58N 35°07' E 129°03'0 0.0
2019-Mar-20 09:28N 35°07' E 129°03'0 0.0
2019-Mar-20 08:58N 35°07' E 129°03'0 0.0
2019-Mar-20 08:28N 35°07' E 129°03'0 0.0
2019-Mar-20 07:57N 35°07' E 129°03'0 0.0
2019-Mar-20 07:27N 35°07' E 129°03'0 0.0
2019-Mar-20 07:00N 35°07' E 129°03'0 0.0
2019-Mar-20 06:30N 35°07' E 129°03'0 0.0
2019-Mar-20 06:00N 35°07' E 129°03'0 0.0
2019-Mar-20 05:30N 35°07' E 129°03'0 0.0
2019-Mar-20 05:00N 35°07' E 129°03'0 0.1
2019-Mar-20 04:30N 35°07' E 129°03'3 6.0
2019-Mar-20 04:00N 35°05' E 129°06'1 2.4
2019-Mar-20 03:30N 35°04' E 129°08'9714.9
2019-Mar-19 21:00N 33°42' E 128°06'1110.4 140 / 8 5.4 15.0 19.0
2019-Mar-19 19:54N 33°32' E 128°01'716.5
2019-Mar-19 19:29N 33°26' E 127°56'919.5
2019-Mar-19 19:00N 33°18' E 127°50'1019.5
2019-Mar-19 18:31N 33°10' E 127°44'1019.6
2019-Mar-19 18:01N 33°01' E 127°38'1020.2
2019-Mar-19 17:31N 32°53' E 127°31'1020.1
2019-Mar-19 17:01N 32°45' E 127°25'3153.3
2019-Mar-19 17:00N 32°42' E 127°24'815.4 020 / 81018.3 5.4 14.513.814.0
2019-Mar-19 16:29N 32°36' E 127°18'8419.6
2019-Mar-19 12:12N 31°26' E 126°24'19719.3
2019-Mar-19 02:00N 28°42' E 124°18'8416.7 020 / 181023.310.8 28.0
2019-Mar-18 21:00N 27°30' E 123°30'14622.1 010 / 201021.3 15.0 20.0
2019-Mar-18 14:22N 25°27' E 122°02'1020.4
2019-Mar-18 13:53N 25°20' E 121°54'820.5
2019-Mar-18 13:30N 25°14' E 121°48'612.8
2019-Mar-18 13:00N 25°09' E 121°45'1 1.0
2019-Mar-18 12:27N 25°08' E 121°45'0 0.0
2019-Mar-18 11:57N 25°08' E 121°45'0 0.0
2019-Mar-18 11:27N 25°08' E 121°45'0 0.0
2019-Mar-18 10:57N 25°08' E 121°45'0 0.0
2019-Mar-18 10:27N 25°08' E 121°45'0 0.0
2019-Mar-18 09:57N 25°08' E 121°45'0 0.0
2019-Mar-18 09:27N 25°08' E 121°45'0 0.0
2019-Mar-18 08:57N 25°08' E 121°45'0 0.0
2019-Mar-18 08:27N 25°08' E 121°45'0 0.0
2019-Mar-18 07:57N 25°08' E 121°45'0 0.0
2019-Mar-18 07:27N 25°08' E 121°45'0 0.0
2019-Mar-18 06:45N 25°08' E 121°45'0 0.0
2019-Mar-18 06:19N 25°08' E 121°45'0 0.0
2019-Mar-18 05:49N 25°08' E 121°45'0 0.0
2019-Mar-18 05:25N 25°08' E 121°45'0 0.0
2019-Mar-18 04:55N 25°08' E 121°45'0 0.0
2019-Mar-18 03:55N 25°08' E 121°45'0 0.0
2019-Mar-18 03:19N 25°08' E 121°45'0 0.0
2019-Mar-18 02:52N 25°08' E 121°45'0 0.0
2019-Mar-18 02:28N 25°08' E 121°45'0 0.0
2019-Mar-18 01:52N 25°08' E 121°45'0 0.0
2019-Mar-18 01:04N 25°08' E 121°45'0 0.0
2019-Mar-18 00:52N 25°08' E 121°45'0 0.0
2019-Mar-18 00:28N 25°08' E 121°45'0 0.0
2019-Mar-17 23:04N 25°08' E 121°45'0 0.0
2019-Mar-17 22:55N 25°08' E 121°45'0 0.0
2019-Mar-17 22:23N 25°08' E 121°45'1 2.5
2019-Mar-17 22:00N 25°09' E 121°45'3 5.5
2019-Mar-17 21:26N 25°12' E 121°45'614.1
2019-Mar-17 21:00N 25°17' E 121°41'1020.3
2019-Mar-17 20:30N 25°23' E 121°32'612.5
2019-Mar-17 19:59N 25°22' E 121°25'4 8.2
2019-Mar-17 19:30N 25°20' E 121°21'1418.4
2019-Mar-17 18:45N 25°13' E 121°08'414.2
2019-Mar-17 18:29N 25°11' E 121°04'611.8
2019-Mar-17 18:00N 25°08' E 120°59'911.3
2019-Mar-17 17:12N 25°03' E 120°50'2812.8
2019-Mar-17 15:00N 24°48' E 120°24'6315.7 360 / 241025.3 5.4 26.0
2019-Mar-17 11:00N 24°30' E 119°18'2913.7 030 / 351022.3 5.4 17.0 25.0
2019-Mar-17 08:50N 24°11' E 118°54'614.7
2019-Mar-17 08:24N 24°07' E 118°48'614.5
2019-Mar-17 08:00N 24°04' E 118°43'714.5
2019-Mar-17 07:30N 24°00' E 118°36'714.6
2019-Mar-17 07:00N 23°55' E 118°30'714.7
2019-Mar-17 06:30N 23°50' E 118°24'1014.9
2019-Mar-17 05:52N 23°45' E 118°16'514.5
2019-Mar-17 05:30N 23°42' E 118°11'714.8
2019-Mar-17 05:00N 23°37' E 118°04'714.9
2019-Mar-17 04:30N 23°33' E 117°58'714.6
2019-Mar-17 04:00N 23°28' E 117°52'714.6
2019-Mar-17 03:30N 23°24' E 117°46'714.6
2019-Mar-17 03:00N 23°19' E 117°39'714.3
2019-Mar-17 02:30N 23°15' E 117°33'4 7.8
2019-Mar-17 02:00N 23°12' E 117°30'4142.6 060 / 211023.3 5.4 26.0
2019-Mar-17 01:58N 23°09' E 117°27'6215.7
2019-Mar-16 22:00N 22°36' E 116°30'12613.6 080 / 24 10.8 19.0 24.0
2019-Mar-16 12:44N 22°16' E 114°16'3 8.5
2019-Mar-16 12:26N 22°17' E 114°13'1 1.5
2019-Mar-16 11:50N 22°18' E 114°13'0 0.0
2019-Mar-16 11:20N 22°18' E 114°13'0 0.0
2019-Mar-16 10:41N 22°18' E 114°13'0 0.0
2019-Mar-16 10:29N 22°18' E 114°13'0 0.0
2019-Mar-16 09:38N 22°18' E 114°13'0 0.0
2019-Mar-16 09:26N 22°18' E 114°13'0 0.0
2019-Mar-16 08:56N 22°18' E 114°13'0 0.0
2019-Mar-16 08:26N 22°18' E 114°13'0 0.0
2019-Mar-16 07:59N 22°18' E 114°13'0 0.0
2019-Mar-16 07:20N 22°18' E 114°13'0 0.0
2019-Mar-16 06:50N 22°18' E 114°13'0 0.0
2019-Mar-16 06:26N 22°18' E 114°13'0 0.0
2019-Mar-16 05:50N 22°18' E 114°13'0 0.0
2019-Mar-16 05:26N 22°18' E 114°13'0 0.0
2019-Mar-16 04:56N 22°18' E 114°13'0 0.0
2019-Mar-16 04:26N 22°18' E 114°13'0 0.0
2019-Mar-16 03:50N 22°18' E 114°13'0 0.0
2019-Mar-16 02:50N 22°18' E 114°13'0 0.0
2019-Mar-16 02:20N 22°18' E 114°13'0 0.0
2019-Mar-16 01:53N 22°18' E 114°13'0 0.0
2019-Mar-16 01:26N 22°18' E 114°13'0 0.0
2019-Mar-16 00:56N 22°18' E 114°13'0 0.0
2019-Mar-16 00:26N 22°18' E 114°13'0 0.0
2019-Mar-15 23:50N 22°18' E 114°13'0 0.0
2019-Mar-15 23:26N 22°18' E 114°13'0 0.0
2019-Mar-15 22:59N 22°18' E 114°13'0 0.0
2019-Mar-15 22:26N 22°18' E 114°13'0 0.0
2019-Mar-15 21:56N 22°18' E 114°13'0 0.0
2019-Mar-15 21:29N 22°18' E 114°13'0 0.0
2019-Mar-15 20:50N 22°18' E 114°13'0 0.0
2019-Mar-15 20:26N 22°18' E 114°13'0 0.0
2019-Mar-15 19:56N 22°18' E 114°13'0 0.0
2019-Mar-15 19:26N 22°18' E 114°13'0 0.0
2019-Mar-15 18:50N 22°18' E 114°13'0 0.0
2019-Mar-15 18:26N 22°18' E 114°13'0 0.0
2019-Mar-15 17:50N 22°18' E 114°13'0 0.0
2019-Mar-15 17:26N 22°18' E 114°13'0 0.0
2019-Mar-15 16:26N 22°18' E 114°13'0 0.0
2019-Mar-15 15:56N 22°18' E 114°13'0 0.0
2019-Mar-15 15:20N 22°18' E 114°13'0 0.0
2019-Mar-15 14:56N 22°18' E 114°13'0 0.0
2019-Mar-15 14:17N 22°18' E 114°13'0 0.0
2019-Mar-15 13:56N 22°18' E 114°13'0 0.0
2019-Mar-15 13:26N 22°18' E 114°13'0 0.0
2019-Mar-15 12:56N 22°18' E 114°13'0 0.0
2019-Mar-15 12:26N 22°18' E 114°13'0 0.0
2019-Mar-15 11:59N 22°18' E 114°13'0 0.0
2019-Mar-15 11:23N 22°18' E 114°13'0 0.0
2019-Mar-15 10:44N 22°18' E 114°13'0 0.0
2019-Mar-15 10:20N 22°18' E 114°13'0 0.0
2019-Mar-15 09:38N 22°18' E 114°13'0 0.0
2019-Mar-15 09:26N 22°18' E 114°13'0 0.0
2019-Mar-15 08:56N 22°18' E 114°13'0 0.0
2019-Mar-15 08:20N 22°18' E 114°13'0 0.0
2019-Mar-15 07:44N 22°18' E 114°13'0 0.0
2019-Mar-15 07:26N 22°18' E 114°13'0 0.0
2019-Mar-15 06:59N 22°18' E 114°13'0 0.0
2019-Mar-15 06:29N 22°18' E 114°13'0 0.0
2019-Mar-15 05:56N 22°18' E 114°13'0 0.0
2019-Mar-15 05:29N 22°18' E 114°13'0 0.0
2019-Mar-15 04:59N 22°18' E 114°13'0 0.0
2019-Mar-15 04:26N 22°18' E 114°13'0 0.0
2019-Mar-15 03:56N 22°18' E 114°13'0 0.0
2019-Mar-15 03:26N 22°18' E 114°13'0 0.0
2019-Mar-15 02:53N 22°18' E 114°13'0 0.0
2019-Mar-15 02:26N 22°18' E 114°13'0 0.0
2019-Mar-15 01:50N 22°18' E 114°13'0 0.0
2019-Mar-15 01:23N 22°18' E 114°13'0 0.0
2019-Mar-15 00:56N 22°18' E 114°13'0 0.0
2019-Mar-15 00:14N 22°18' E 114°13'0 0.0
2019-Mar-14 23:59N 22°18' E 114°13'0 0.0
2019-Mar-14 23:26N 22°18' E 114°13'0 0.0
2019-Mar-14 22:56N 22°18' E 114°13'0 0.2
2019-Mar-14 22:30N 22°18' E 114°13'2 3.8
2019-Mar-14 22:00N 22°17' E 114°14'7 9.9
2019-Mar-14 21:16N 22°14' E 114°21'  
2019-Mar-12 00:00N 19°54' E 107°24'12117.3 050 / 121018.3 5.4 21.0 26.0
2019-Mar-11 17:00N 17°54' E 107°42'3618.2 360 / 131013.210.8 23.923.319.8
2019-Mar-11 15:00N 17°18' E 107°48'   010 / 141016.210.8 28.0

Dump ship's entire track history